Taipak, Kazakhstan
Current Conditions -  °F | °C
As of 8:30 AM on Thursday 23 Oct 2014 (Local Time) from UATG Reporting Station
Haze Haze  
Wind Chill:   Ceiling: 1700
Heat Index:   Visibility: 3mi
Dew Point:   Wind: 7mph
Humidity: 93%   Direction: 10°N
Pressure: 29.97"   Gusts: NA
Location:  49.05°N, 51.87°E
Report Text: UATG 230430Z 01003MPS 5000 BR BKN017 07/06 Q1015 R32/19//67NOSIG RMK QFE763/1018
Loading
Personal Weather Stations






























Interactive Weather Map
Tropical Storm Tracking
New forecast layout! Learn more

10-Day Weather Forecast

Advertisements
Track Severe Weather on mobile